sensor_id;sensor_type;location;lat;lon;timestamp;temperature;humidity
5466;DHT22;2755;50.728;7.108;2023-08-30T00:00:15;14.90;21.60
5466;DHT22;2755;50.728;7.108;2023-08-30T00:02:43;14.90;22.70
5466;DHT22;2755;50.728;7.108;2023-08-30T00:05:09;15.10;22.50
5466;DHT22;2755;50.728;7.108;2023-08-30T00:07:35;14.80;22.30
5466;DHT22;2755;50.728;7.108;2023-08-30T00:10:01;14.90;25.20
5466;DHT22;2755;50.728;7.108;2023-08-30T00:12:27;14.90;23.20
5466;DHT22;2755;50.728;7.108;2023-08-30T00:14:53;15.30;23.10
5466;DHT22;2755;50.728;7.108;2023-08-30T00:17:19;15.00;22.40
5466;DHT22;2755;50.728;7.108;2023-08-30T00:19:45;15.10;24.70
5466;DHT22;2755;50.728;7.108;2023-08-30T00:24:38;15.00;22.60
5466;DHT22;2755;50.728;7.108;2023-08-30T00:27:04;15.00;22.70
5466;DHT22;2755;50.728;7.108;2023-08-30T00:29:29;14.60;22.90
5466;DHT22;2755;50.728;7.108;2023-08-30T00:31:55;14.80;23.30
5466;DHT22;2755;50.728;7.108;2023-08-30T00:34:21;14.30;23.70
5466;DHT22;2755;50.728;7.108;2023-08-30T00:36:47;14.70;27.40
5466;DHT22;2755;50.728;7.108;2023-08-30T00:39:13;14.50;25.40
5466;DHT22;2755;50.728;7.108;2023-08-30T00:41:39;13.60;24.80
5466;DHT22;2755;50.728;7.108;2023-08-30T00:44:04;14.40;28.50
5466;DHT22;2755;50.728;7.108;2023-08-30T00:46:31;14.80;27.10
5466;DHT22;2755;50.728;7.108;2023-08-30T00:48:58;14.70;27.90
5466;DHT22;2755;50.728;7.108;2023-08-30T00:53:51;15.00;31.50
5466;DHT22;2755;50.728;7.108;2023-08-30T00:56:17;14.20;28.20
5466;DHT22;2755;50.728;7.108;2023-08-30T00:58:43;14.20;29.00
5466;DHT22;2755;50.728;7.108;2023-08-30T01:01:12;14.40;28.40
5466;DHT22;2755;50.728;7.108;2023-08-30T01:03:40;14.20;29.70
5466;DHT22;2755;50.728;7.108;2023-08-30T01:08:32;14.40;30.60
5466;DHT22;2755;50.728;7.108;2023-08-30T01:13:29;14.70;34.60
5466;DHT22;2755;50.728;7.108;2023-08-30T01:15:57;14.60;31.60
5466;DHT22;2755;50.728;7.108;2023-08-30T01:18:26;13.90;29.50
5466;DHT22;2755;50.728;7.108;2023-08-30T01:20:54;14.10;34.60
5466;DHT22;2755;50.728;7.108;2023-08-30T01:23:48;14.50;29.70
5466;DHT22;2755;50.728;7.108;2023-08-30T01:26:45;14.40;29.60
5466;DHT22;2755;50.728;7.108;2023-08-30T01:29:15;14.20;31.80
5466;DHT22;2755;50.728;7.108;2023-08-30T01:31:42;14.30;31.60
5466;DHT22;2755;50.728;7.108;2023-08-30T01:34:09;14.20;33.20
5466;DHT22;2755;50.728;7.108;2023-08-30T01:36:36;14.20;32.00
5466;DHT22;2755;50.728;7.108;2023-08-30T01:39:02;14.50;35.90
5466;DHT22;2755;50.728;7.108;2023-08-30T01:41:28;14.30;32.80
5466;DHT22;2755;50.728;7.108;2023-08-30T01:43:55;14.50;31.60
5466;DHT22;2755;50.728;7.108;2023-08-30T01:46:22;14.70;32.40
5466;DHT22;2755;50.728;7.108;2023-08-30T01:48:49;14.40;36.70
5466;DHT22;2755;50.728;7.108;2023-08-30T01:51:16;14.50;33.70
5466;DHT22;2755;50.728;7.108;2023-08-30T01:53:43;14.50;31.80
5466;DHT22;2755;50.728;7.108;2023-08-30T01:56:09;14.30;33.30
5466;DHT22;2755;50.728;7.108;2023-08-30T01:58:35;14.50;33.70
5466;DHT22;2755;50.728;7.108;2023-08-30T02:06:13;14.50;33.20
5466;DHT22;2755;50.728;7.108;2023-08-30T02:09:03;14.60;31.50
5466;DHT22;2755;50.728;7.108;2023-08-30T02:11:32;14.20;36.20
5466;DHT22;2755;50.728;7.108;2023-08-30T02:14:00;14.70;32.70
5466;DHT22;2755;50.728;7.108;2023-08-30T02:16:27;14.50;35.20
5466;DHT22;2755;50.728;7.108;2023-08-30T02:18:53;14.00;31.80
5466;DHT22;2755;50.728;7.108;2023-08-30T02:23:52;14.80;35.20
5466;DHT22;2755;50.728;7.108;2023-08-30T02:26:21;14.50;31.30
5466;DHT22;2755;50.728;7.108;2023-08-30T02:28:47;14.80;31.50
5466;DHT22;2755;50.728;7.108;2023-08-30T02:33:39;14.50;30.40
5466;DHT22;2755;50.728;7.108;2023-08-30T02:36:05;14.80;30.00
5466;DHT22;2755;50.728;7.108;2023-08-30T02:38:30;14.80;30.00
5466;DHT22;2755;50.728;7.108;2023-08-30T02:40:56;14.60;29.70
5466;DHT22;2755;50.728;7.108;2023-08-30T02:43:22;14.70;30.60
5466;DHT22;2755;50.728;7.108;2023-08-30T02:45:47;14.60;32.80
5466;DHT22;2755;50.728;7.108;2023-08-30T02:48:14;13.90;30.80
5466;DHT22;2755;50.728;7.108;2023-08-30T02:50:40;14.90;29.80
5466;DHT22;2755;50.728;7.108;2023-08-30T02:53:05;14.50;29.50
5466;DHT22;2755;50.728;7.108;2023-08-30T02:57:59;14.60;29.90
5466;DHT22;2755;50.728;7.108;2023-08-30T03:02:51;14.70;29.80
5466;DHT22;2755;50.728;7.108;2023-08-30T03:05:18;14.60;29.70
5466;DHT22;2755;50.728;7.108;2023-08-30T03:07:43;14.30;32.50
5466;DHT22;2755;50.728;7.108;2023-08-30T03:12:35;14.30;30.20
5466;DHT22;2755;50.728;7.108;2023-08-30T03:15:01;14.80;31.40
5466;DHT22;2755;50.728;7.108;2023-08-30T03:17:26;14.50;33.00
5466;DHT22;2755;50.728;7.108;2023-08-30T03:19:52;14.60;31.80
5466;DHT22;2755;50.728;7.108;2023-08-30T03:22:21;14.60;35.60
5466;DHT22;2755;50.728;7.108;2023-08-30T03:24:47;14.30;36.10
5466;DHT22;2755;50.728;7.108;2023-08-30T03:27:13;14.60;36.90
5466;DHT22;2755;50.728;7.108;2023-08-30T03:32:04;14.40;36.80
5466;DHT22;2755;50.728;7.108;2023-08-30T03:34:30;14.20;35.50
5466;DHT22;2755;50.728;7.108;2023-08-30T03:39:22;14.20;35.50
5466;DHT22;2755;50.728;7.108;2023-08-30T03:44:15;14.10;35.70
5466;DHT22;2755;50.728;7.108;2023-08-30T03:46:40;14.10;37.90
5466;DHT22;2755;50.728;7.108;2023-08-30T03:49:06;14.50;38.40
5466;DHT22;2755;50.728;7.108;2023-08-30T03:51:31;14.60;39.50
5466;DHT22;2755;50.728;7.108;2023-08-30T03:53:57;13.90;40.80
5466;DHT22;2755;50.728;7.108;2023-08-30T03:56:23;12.80;42.20
5466;DHT22;2755;50.728;7.108;2023-08-30T03:58:49;13.80;47.10
5466;DHT22;2755;50.728;7.108;2023-08-30T04:01:14;13.90;48.20
5466;DHT22;2755;50.728;7.108;2023-08-30T04:03:40;13.80;52.60
5466;DHT22;2755;50.728;7.108;2023-08-30T04:10:58;12.60;53.80
5466;DHT22;2755;50.728;7.108;2023-08-30T04:13:24;14.20;58.20
5466;DHT22;2755;50.728;7.108;2023-08-30T04:15:49;12.40;61.80
5466;DHT22;2755;50.728;7.108;2023-08-30T04:18:16;13.20;60.60
5466;DHT22;2755;50.728;7.108;2023-08-30T04:20:46;11.60;65.50
5466;DHT22;2755;50.728;7.108;2023-08-30T04:23:12;13.20;73.70
5466;DHT22;2755;50.728;7.108;2023-08-30T04:30:30;13.20;77.50
5466;DHT22;2755;50.728;7.108;2023-08-30T04:35:21;12.10;84.50
5466;DHT22;2755;50.728;7.108;2023-08-30T04:37:47;12.60;87.80
5466;DHT22;2755;50.728;7.108;2023-08-30T04:40:13;13.10;88.10
5466;DHT22;2755;50.728;7.108;2023-08-30T04:42:39;13.60;92.70
5466;DHT22;2755;50.728;7.108;2023-08-30T04:45:07;13.50;91.10
5466;DHT22;2755;50.728;7.108;2023-08-30T04:47:33;13.00;91.50
5466;DHT22;2755;50.728;7.108;2023-08-30T04:49:59;12.80;93.10
5466;DHT22;2755;50.728;7.108;2023-08-30T04:52:25;12.90;93.70
5466;DHT22;2755;50.728;7.108;2023-08-30T04:57:17;13.20;93.30
5466;DHT22;2755;50.728;7.108;2023-08-30T04:59:43;13.30;92.20
5466;DHT22;2755;50.728;7.108;2023-08-30T05:02:09;13.20;92.90
5466;DHT22;2755;50.728;7.108;2023-08-30T05:04:35;13.10;93.70
5466;DHT22;2755;50.728;7.108;2023-08-30T05:07:01;13.00;92.90
5466;DHT22;2755;50.728;7.108;2023-08-30T05:09:26;13.00;95.30
5466;DHT22;2755;50.728;7.108;2023-08-30T05:11:52;13.20;94.10
5466;DHT22;2755;50.728;7.108;2023-08-30T05:19:10;13.20;99.90
5466;DHT22;2755;50.728;7.108;2023-08-30T05:21:37;13.30;96.60
5466;DHT22;2755;50.728;7.108;2023-08-30T05:24:03;13.40;98.30
5466;DHT22;2755;50.728;7.108;2023-08-30T05:26:31;13.90;99.90
5466;DHT22;2755;50.728;7.108;2023-08-30T05:28:56;13.20;97.90
5466;DHT22;2755;50.728;7.108;2023-08-30T05:33:48;13.60;96.70
5466;DHT22;2755;50.728;7.108;2023-08-30T05:38:40;13.50;95.70
5466;DHT22;2755;50.728;7.108;2023-08-30T05:41:06;13.70;95.90
5466;DHT22;2755;50.728;7.108;2023-08-30T05:45:58;13.80;95.70
5466;DHT22;2755;50.728;7.108;2023-08-30T05:48:28;13.70;94.60
5466;DHT22;2755;50.728;7.108;2023-08-30T05:50:53;13.80;94.00
5466;DHT22;2755;50.728;7.108;2023-08-30T05:53:19;13.80;92.40
5466;DHT22;2755;50.728;7.108;2023-08-30T05:55:44;13.70;91.20
5466;DHT22;2755;50.728;7.108;2023-08-30T06:03:03;13.60;90.60
5466;DHT22;2755;50.728;7.108;2023-08-30T06:05:29;14.00;90.80
5466;DHT22;2755;50.728;7.108;2023-08-30T06:07:54;14.10;89.10
5466;DHT22;2755;50.728;7.108;2023-08-30T06:10:20;14.10;89.90
5466;DHT22;2755;50.728;7.108;2023-08-30T06:12:45;14.30;90.00
5466;DHT22;2755;50.728;7.108;2023-08-30T06:15:11;14.80;79.20
5466;DHT22;2755;50.728;7.108;2023-08-30T06:17:37;14.60;78.60
5466;DHT22;2755;50.728;7.108;2023-08-30T06:22:28;15.20;73.80
5466;DHT22;2755;50.728;7.108;2023-08-30T06:27:20;15.00;56.80
5466;DHT22;2755;50.728;7.108;2023-08-30T06:39:34;15.90;41.90
5466;DHT22;2755;50.728;7.108;2023-08-30T06:42:03;16.20;44.10
5466;DHT22;2755;50.728;7.108;2023-08-30T06:44:29;16.00;40.30
5466;DHT22;2755;50.728;7.108;2023-08-30T06:46:56;16.10;32.80
5466;DHT22;2755;50.728;7.108;2023-08-30T06:49:22;15.60;37.70
5466;DHT22;2755;50.728;7.108;2023-08-30T06:51:48;16.50;34.50
5466;DHT22;2755;50.728;7.108;2023-08-30T06:54:13;16.50;35.10
5466;DHT22;2755;50.728;7.108;2023-08-30T06:56:39;16.20;35.40
5466;DHT22;2755;50.728;7.108;2023-08-30T06:59:05;17.10;35.90
5466;DHT22;2755;50.728;7.108;2023-08-30T07:01:30;16.80;33.80
5466;DHT22;2755;50.728;7.108;2023-08-30T07:03:56;16.70;29.30
5466;DHT22;2755;50.728;7.108;2023-08-30T07:11:14;18.60;19.70
5466;DHT22;2755;50.728;7.108;2023-08-30T07:13:40;18.20;19.60
5466;DHT22;2755;50.728;7.108;2023-08-30T07:16:05;18.60;11.30
5466;DHT22;2755;50.728;7.108;2023-08-30T07:18:31;18.90;4.60
5466;DHT22;2755;50.728;7.108;2023-08-30T07:20:56;19.20;1.00
5466;DHT22;2755;50.728;7.108;2023-08-30T07:23:22;18.30;1.00
5466;DHT22;2755;50.728;7.108;2023-08-30T07:28:14;19.90;1.00
5466;DHT22;2755;50.728;7.108;2023-08-30T07:30:39;20.70;1.00
5466;DHT22;2755;50.728;7.108;2023-08-30T07:33:05;20.10;1.00
5466;DHT22;2755;50.728;7.108;2023-08-30T07:35:31;20.80;1.00
5466;DHT22;2755;50.728;7.108;2023-08-30T07:37:58;21.00;1.00
5466;DHT22;2755;50.728;7.108;2023-08-30T07:45:18;21.50;1.00
5466;DHT22;2755;50.728;7.108;2023-08-30T07:47:43;21.00;1.00
5466;DHT22;2755;50.728;7.108;2023-08-30T07:52:35;21.10;1.00
5466;DHT22;2755;50.728;7.108;2023-08-30T07:55:01;21.50;1.00
5466;DHT22;2755;50.728;7.108;2023-08-30T07:57:27;21.40;1.00
5466;DHT22;2755;50.728;7.108;2023-08-30T07:59:52;21.30;1.00
5466;DHT22;2755;50.728;7.108;2023-08-30T08:04:44;22.20;1.00
5466;DHT22;2755;50.728;7.108;2023-08-30T08:07:09;21.30;1.00
5466;DHT22;2755;50.728;7.108;2023-08-30T08:09:35;22.20;1.00
5466;DHT22;2755;50.728;7.108;2023-08-30T08:12:01;22.00;1.00
5466;DHT22;2755;50.728;7.108;2023-08-30T08:16:52;21.90;1.00
5466;DHT22;2755;50.728;7.108;2023-08-30T08:19:18;22.30;1.00
5466;DHT22;2755;50.728;7.108;2023-08-30T08:21:45;22.70;1.00
5466;DHT22;2755;50.728;7.108;2023-08-30T08:24:10;23.00;1.00
5466;DHT22;2755;50.728;7.108;2023-08-30T08:26:36;23.00;1.00
5466;DHT22;2755;50.728;7.108;2023-08-30T08:29:02;23.60;1.00
5466;DHT22;2755;50.728;7.108;2023-08-30T08:31:28;23.10;1.00
5466;DHT22;2755;50.728;7.108;2023-08-30T08:34:07;23.80;1.00
5466;DHT22;2755;50.728;7.108;2023-08-30T08:41:30;23.90;1.00
5466;DHT22;2755;50.728;7.108;2023-08-30T08:43:58;22.80;1.00
5466;DHT22;2755;50.728;7.108;2023-08-30T08:46:26;24.40;1.00
5466;DHT22;2755;50.728;7.108;2023-08-30T08:48:54;24.40;1.00
5466;DHT22;2755;50.728;7.108;2023-08-30T08:51:21;24.50;1.00
5466;DHT22;2755;50.728;7.108;2023-08-30T08:56:15;23.70;1.00
5466;DHT22;2755;50.728;7.108;2023-08-30T08:58:42;24.40;1.00
5466;DHT22;2755;50.728;7.108;2023-08-30T09:01:09;24.00;1.00
5466;DHT22;2755;50.728;7.108;2023-08-30T09:03:35;24.10;1.00
5466;DHT22;2755;50.728;7.108;2023-08-30T09:06:02;24.00;1.00
5466;DHT22;2755;50.728;7.108;2023-08-30T09:08:28;24.20;1.00
5466;DHT22;2755;50.728;7.108;2023-08-30T09:10:54;24.90;1.00
5466;DHT22;2755;50.728;7.108;2023-08-30T09:13:19;25.30;1.00
5466;DHT22;2755;50.728;7.108;2023-08-30T09:15:46;24.40;1.00
5466;DHT22;2755;50.728;7.108;2023-08-30T09:18:18;24.30;1.00
5466;DHT22;2755;50.728;7.108;2023-08-30T09:20:44;24.80;1.00
5466;DHT22;2755;50.728;7.108;2023-08-30T09:23:20;24.70;1.00
5466;DHT22;2755;50.728;7.108;2023-08-30T09:25:46;24.90;1.00
5466;DHT22;2755;50.728;7.108;2023-08-30T09:28:11;24.50;1.00
5466;DHT22;2755;50.728;7.108;2023-08-30T09:30:39;24.50;1.00
5466;DHT22;2755;50.728;7.108;2023-08-30T09:33:05;24.10;1.00
5466;DHT22;2755;50.728;7.108;2023-08-30T09:35:31;23.60;1.00
5466;DHT22;2755;50.728;7.108;2023-08-30T09:37:57;24.00;1.00
5466;DHT22;2755;50.728;7.108;2023-08-30T09:40:22;23.70;1.00
5466;DHT22;2755;50.728;7.108;2023-08-30T09:42:48;23.70;1.00
5466;DHT22;2755;50.728;7.108;2023-08-30T09:45:23;23.00;1.00
5466;DHT22;2755;50.728;7.108;2023-08-30T09:47:49;21.50;1.00
5466;DHT22;2755;50.728;7.108;2023-08-30T09:50:17;22.50;1.00
5466;DHT22;2755;50.728;7.108;2023-08-30T09:52:46;22.70;1.00
5466;DHT22;2755;50.728;7.108;2023-08-30T09:57:38;22.00;1.00
5466;DHT22;2755;50.728;7.108;2023-08-30T10:00:05;21.90;1.00
5466;DHT22;2755;50.728;7.108;2023-08-30T10:02:31;22.50;1.00
5466;DHT22;2755;50.728;7.108;2023-08-30T10:07:25;21.80;1.00
5466;DHT22;2755;50.728;7.108;2023-08-30T10:09:51;22.10;1.00
5466;DHT22;2755;50.728;7.108;2023-08-30T10:12:20;22.10;1.00
5466;DHT22;2755;50.728;7.108;2023-08-30T10:14:47;21.80;1.00
5466;DHT22;2755;50.728;7.108;2023-08-30T10:19:41;22.10;1.00
5466;DHT22;2755;50.728;7.108;2023-08-30T10:24:41;21.40;1.00
5466;DHT22;2755;50.728;7.108;2023-08-30T10:27:08;21.10;1.00
5466;DHT22;2755;50.728;7.108;2023-08-30T10:29:37;21.00;1.00
5466;DHT22;2755;50.728;7.108;2023-08-30T10:32:06;20.60;1.00
5466;DHT22;2755;50.728;7.108;2023-08-30T10:34:33;20.20;1.00
5466;DHT22;2755;50.728;7.108;2023-08-30T10:37:06;20.10;1.00
5466;DHT22;2755;50.728;7.108;2023-08-30T10:39:39;20.20;1.00
5466;DHT22;2755;50.728;7.108;2023-08-30T10:42:13;20.20;1.00
5466;DHT22;2755;50.728;7.108;2023-08-30T10:47:23;20.10;1.00
5466;DHT22;2755;50.728;7.108;2023-08-30T10:49:54;20.10;1.00
5466;DHT22;2755;50.728;7.108;2023-08-30T10:57:14;21.10;1.00
5466;DHT22;2755;50.728;7.108;2023-08-30T11:00:03;20.40;1.00
5466;DHT22;2755;50.728;7.108;2023-08-30T11:02:30;20.90;1.00
5466;DHT22;2755;50.728;7.108;2023-08-30T11:07:25;21.20;1.00
5466;DHT22;2755;50.728;7.108;2023-08-30T11:09:52;21.20;1.00
5466;DHT22;2755;50.728;7.108;2023-08-30T11:14:44;21.50;1.00
5466;DHT22;2755;50.728;7.108;2023-08-30T11:17:10;21.40;1.00
5466;DHT22;2755;50.728;7.108;2023-08-30T11:19:36;21.40;1.00
5466;DHT22;2755;50.728;7.108;2023-08-30T11:24:28;21.90;1.00
5466;DHT22;2755;50.728;7.108;2023-08-30T11:26:54;22.10;1.00
5466;DHT22;2755;50.728;7.108;2023-08-30T11:29:20;22.50;1.00
5466;DHT22;2755;50.728;7.108;2023-08-30T11:31:45;25.40;1.00
5466;DHT22;2755;50.728;7.108;2023-08-30T11:34:12;21.50;1.00
5466;DHT22;2755;50.728;7.108;2023-08-30T11:39:04;21.10;1.00
5466;DHT22;2755;50.728;7.108;2023-08-30T11:41:31;20.70;1.00
5466;DHT22;2755;50.728;7.108;2023-08-30T11:43:58;20.50;1.00
5466;DHT22;2755;50.728;7.108;2023-08-30T11:48:51;19.90;1.00
5466;DHT22;2755;50.728;7.108;2023-08-30T11:53:45;18.70;1.00
5466;DHT22;2755;50.728;7.108;2023-08-30T11:56:11;18.30;2.40
5466;DHT22;2755;50.728;7.108;2023-08-30T11:58:37;17.90;9.00
5466;DHT22;2755;50.728;7.108;2023-08-30T12:01:07;18.20;21.60
5466;DHT22;2755;50.728;7.108;2023-08-30T12:08:28;17.60;28.10
5466;DHT22;2755;50.728;7.108;2023-08-30T12:10:55;16.80;36.80
5466;DHT22;2755;50.728;7.108;2023-08-30T12:13:27;16.70;35.50
5466;DHT22;2755;50.728;7.108;2023-08-30T12:15:54;17.00;46.70
5466;DHT22;2755;50.728;7.108;2023-08-30T12:18:28;16.40;46.20
5466;DHT22;2755;50.728;7.108;2023-08-30T12:21:01;16.30;51.00
5466;DHT22;2755;50.728;7.108;2023-08-30T12:23:31;16.30;60.80
5466;DHT22;2755;50.728;7.108;2023-08-30T12:28:31;16.00;70.20
5466;DHT22;2755;50.728;7.108;2023-08-30T12:30:57;16.20;83.30
5466;DHT22;2755;50.728;7.108;2023-08-30T12:35:51;16.10;89.70
5466;DHT22;2755;50.728;7.108;2023-08-30T12:43:13;16.00;91.70
5466;DHT22;2755;50.728;7.108;2023-08-30T12:45:43;16.20;94.00
5466;DHT22;2755;50.728;7.108;2023-08-30T12:48:09;16.30;97.30
5466;DHT22;2755;50.728;7.108;2023-08-30T12:50:35;16.20;97.40
5466;DHT22;2755;50.728;7.108;2023-08-30T12:53:02;15.50;99.90
5466;DHT22;2755;50.728;7.108;2023-08-30T12:55:28;16.50;99.90
5466;DHT22;2755;50.728;7.108;2023-08-30T12:57:54;16.50;98.80
5466;DHT22;2755;50.728;7.108;2023-08-30T13:02:46;16.90;99.90
5466;DHT22;2755;50.728;7.108;2023-08-30T13:05:11;16.50;96.00
5466;DHT22;2755;50.728;7.108;2023-08-30T13:07:37;16.30;97.00
5466;DHT22;2755;50.728;7.108;2023-08-30T13:10:03;16.40;97.50
5466;DHT22;2755;50.728;7.108;2023-08-30T13:12:29;16.10;98.00
5466;DHT22;2755;50.728;7.108;2023-08-30T13:14:54;16.40;97.80
5466;DHT22;2755;50.728;7.108;2023-08-30T13:17:20;16.40;99.90
5466;DHT22;2755;50.728;7.108;2023-08-30T13:19:48;16.40;99.90
5466;DHT22;2755;50.728;7.108;2023-08-30T13:22:15;15.30;99.90
5466;DHT22;2755;50.728;7.108;2023-08-30T13:24:40;16.10;99.90
5466;DHT22;2755;50.728;7.108;2023-08-30T13:29:32;16.30;99.90
5466;DHT22;2755;50.728;7.108;2023-08-30T13:31:59;16.50;99.90
5466;DHT22;2755;50.728;7.108;2023-08-30T13:34:25;16.60;99.90
5466;DHT22;2755;50.728;7.108;2023-08-30T13:36:52;14.60;99.90
5466;DHT22;2755;50.728;7.108;2023-08-30T13:39:19;16.60;99.90
5466;DHT22;2755;50.728;7.108;2023-08-30T13:41:48;16.60;99.90
5466;DHT22;2755;50.728;7.108;2023-08-30T13:46:40;16.50;99.90
5466;DHT22;2755;50.728;7.108;2023-08-30T13:51:32;17.20;99.90
5466;DHT22;2755;50.728;7.108;2023-08-30T13:53:58;16.70;99.90
5466;DHT22;2755;50.728;7.108;2023-08-30T13:56:24;16.80;99.90
5466;DHT22;2755;50.728;7.108;2023-08-30T14:01:16;16.50;99.90
5466;DHT22;2755;50.728;7.108;2023-08-30T14:03:42;16.90;99.90
5466;DHT22;2755;50.728;7.108;2023-08-30T14:06:08;16.40;99.90
5466;DHT22;2755;50.728;7.108;2023-08-30T14:08:35;16.70;99.90
5466;DHT22;2755;50.728;7.108;2023-08-30T14:11:00;16.50;99.90
5466;DHT22;2755;50.728;7.108;2023-08-30T14:13:26;16.70;99.90
5466;DHT22;2755;50.728;7.108;2023-08-30T14:15:53;16.80;99.90
5466;DHT22;2755;50.728;7.108;2023-08-30T14:20:45;17.50;99.90
5466;DHT22;2755;50.728;7.108;2023-08-30T14:23:11;17.00;99.90
5466;DHT22;2755;50.728;7.108;2023-08-30T14:25:36;16.70;99.90
5466;DHT22;2755;50.728;7.108;2023-08-30T14:28:02;16.70;99.90
5466;DHT22;2755;50.728;7.108;2023-08-30T14:30:29;16.20;99.90
5466;DHT22;2755;50.728;7.108;2023-08-30T14:32:55;16.90;99.90
5466;DHT22;2755;50.728;7.108;2023-08-30T14:35:21;16.20;99.90
5466;DHT22;2755;50.728;7.108;2023-08-30T14:37:47;16.40;99.90
5466;DHT22;2755;50.728;7.108;2023-08-30T14:40:13;16.40;99.90
5466;DHT22;2755;50.728;7.108;2023-08-30T14:45:05;16.40;96.30
5466;DHT22;2755;50.728;7.108;2023-08-30T14:47:33;15.70;99.90
5466;DHT22;2755;50.728;7.108;2023-08-30T14:54:53;15.00;99.90
5466;DHT22;2755;50.728;7.108;2023-08-30T14:59:46;14.80;99.90
5466;DHT22;2755;50.728;7.108;2023-08-30T15:02:11;14.60;99.90
5466;DHT22;2755;50.728;7.108;2023-08-30T15:04:37;14.70;99.90
5466;DHT22;2755;50.728;7.108;2023-08-30T15:07:03;14.20;99.90
5466;DHT22;2755;50.728;7.108;2023-08-30T15:09:30;15.10;99.90
5466;DHT22;2755;50.728;7.108;2023-08-30T15:11:56;14.70;99.90
5466;DHT22;2755;50.728;7.108;2023-08-30T15:14:26;14.70;99.90
5466;DHT22;2755;50.728;7.108;2023-08-30T15:16:52;14.80;99.90
5466;DHT22;2755;50.728;7.108;2023-08-30T15:19:18;14.80;99.90
5466;DHT22;2755;50.728;7.108;2023-08-30T15:21:44;14.90;99.90
5466;DHT22;2755;50.728;7.108;2023-08-30T15:24:10;15.70;99.90
5466;DHT22;2755;50.728;7.108;2023-08-30T15:29:03;14.80;99.90
5466;DHT22;2755;50.728;7.108;2023-08-30T15:31:29;15.40;99.90
5466;DHT22;2755;50.728;7.108;2023-08-30T15:33:54;15.30;99.90
5466;DHT22;2755;50.728;7.108;2023-08-30T15:36:20;15.10;99.90
5466;DHT22;2755;50.728;7.108;2023-08-30T15:38:46;15.90;99.90
5466;DHT22;2755;50.728;7.108;2023-08-30T15:43:39;16.00;99.90
5466;DHT22;2755;50.728;7.108;2023-08-30T15:46:06;15.50;99.90
5466;DHT22;2755;50.728;7.108;2023-08-30T15:48:32;15.80;99.90
5466;DHT22;2755;50.728;7.108;2023-08-30T15:50:57;16.20;99.90
5466;DHT22;2755;50.728;7.108;2023-08-30T15:55:49;16.20;99.90
5466;DHT22;2755;50.728;7.108;2023-08-30T15:58:15;15.70;99.90
5466;DHT22;2755;50.728;7.108;2023-08-30T16:00:42;15.80;99.90
5466;DHT22;2755;50.728;7.108;2023-08-30T16:03:10;15.40;99.90
5466;DHT22;2755;50.728;7.108;2023-08-30T16:05:36;15.50;99.90
5466;DHT22;2755;50.728;7.108;2023-08-30T16:08:02;14.90;99.90
5466;DHT22;2755;50.728;7.108;2023-08-30T16:10:28;15.40;99.90
5466;DHT22;2755;50.728;7.108;2023-08-30T16:12:53;15.10;99.90
5466;DHT22;2755;50.728;7.108;2023-08-30T16:15:19;15.10;99.90
5466;DHT22;2755;50.728;7.108;2023-08-30T16:17:46;14.20;99.90
5466;DHT22;2755;50.728;7.108;2023-08-30T16:22:37;15.10;99.90
5466;DHT22;2755;50.728;7.108;2023-08-30T16:25:04;15.00;99.90
5466;DHT22;2755;50.728;7.108;2023-08-30T16:27:31;15.30;99.90
5466;DHT22;2755;50.728;7.108;2023-08-30T16:29:56;15.00;99.90
5466;DHT22;2755;50.728;7.108;2023-08-30T16:32:22;15.10;99.90
5466;DHT22;2755;50.728;7.108;2023-08-30T16:34:47;15.10;99.90
5466;DHT22;2755;50.728;7.108;2023-08-30T16:39:40;15.10;99.90
5466;DHT22;2755;50.728;7.108;2023-08-30T16:42:06;15.20;99.90
5466;DHT22;2755;50.728;7.108;2023-08-30T16:44:32;15.00;99.90
5466;DHT22;2755;50.728;7.108;2023-08-30T16:46:58;15.20;99.90
5466;DHT22;2755;50.728;7.108;2023-08-30T16:49:23;15.00;99.90
5466;DHT22;2755;50.728;7.108;2023-08-30T16:51:49;15.00;99.90
5466;DHT22;2755;50.728;7.108;2023-08-30T16:54:14;15.10;99.90
5466;DHT22;2755;50.728;7.108;2023-08-30T16:56:40;14.80;99.90
5466;DHT22;2755;50.728;7.108;2023-08-30T16:59:05;13.80;99.90
5466;DHT22;2755;50.728;7.108;2023-08-30T17:01:31;14.90;99.90
5466;DHT22;2755;50.728;7.108;2023-08-30T17:03:57;14.70;99.90
5466;DHT22;2755;50.728;7.108;2023-08-30T17:08:48;14.90;99.90
5466;DHT22;2755;50.728;7.108;2023-08-30T17:13:40;15.20;99.90
5466;DHT22;2755;50.728;7.108;2023-08-30T17:16:06;14.40;99.90
5466;DHT22;2755;50.728;7.108;2023-08-30T17:18:34;14.80;99.90
5466;DHT22;2755;50.728;7.108;2023-08-30T17:23:28;14.60;99.90
5466;DHT22;2755;50.728;7.108;2023-08-30T17:25:53;14.80;99.90
5466;DHT22;2755;50.728;7.108;2023-08-30T17:30:45;14.80;99.90
5466;DHT22;2755;50.728;7.108;2023-08-30T17:33:11;14.80;99.90
5466;DHT22;2755;50.728;7.108;2023-08-30T17:35:37;15.50;99.90
5466;DHT22;2755;50.728;7.108;2023-08-30T17:38:03;15.10;99.90
5466;DHT22;2755;50.728;7.108;2023-08-30T17:40:33;15.20;99.90
5466;DHT22;2755;50.728;7.108;2023-08-30T17:43:00;14.40;99.90
5466;DHT22;2755;50.728;7.108;2023-08-30T17:45:29;14.00;99.90
5466;DHT22;2755;50.728;7.108;2023-08-30T17:47:56;14.80;99.90
5466;DHT22;2755;50.728;7.108;2023-08-30T17:52:48;14.60;99.90
5466;DHT22;2755;50.728;7.108;2023-08-30T17:55:15;15.50;99.90
5466;DHT22;2755;50.728;7.108;2023-08-30T17:57:41;14.80;99.90
5466;DHT22;2755;50.728;7.108;2023-08-30T18:00:08;14.60;99.90
5466;DHT22;2755;50.728;7.108;2023-08-30T18:02:35;14.80;99.90
5466;DHT22;2755;50.728;7.108;2023-08-30T18:05:01;14.30;99.90
5466;DHT22;2755;50.728;7.108;2023-08-30T18:07:35;14.50;99.90
5466;DHT22;2755;50.728;7.108;2023-08-30T18:10:01;14.70;99.90
5466;DHT22;2755;50.728;7.108;2023-08-30T18:14:55;14.50;99.90
5466;DHT22;2755;50.728;7.108;2023-08-30T18:17:20;14.80;99.90
5466;DHT22;2755;50.728;7.108;2023-08-30T18:19:46;14.50;99.90
5466;DHT22;2755;50.728;7.108;2023-08-30T18:22:12;15.00;99.90
5466;DHT22;2755;50.728;7.108;2023-08-30T18:24:38;14.80;99.90
5466;DHT22;2755;50.728;7.108;2023-08-30T18:27:04;14.70;99.90
5466;DHT22;2755;50.728;7.108;2023-08-30T18:29:30;15.00;99.90
5466;DHT22;2755;50.728;7.108;2023-08-30T18:31:57;14.70;99.90
5466;DHT22;2755;50.728;7.108;2023-08-30T18:34:23;15.10;99.90
5466;DHT22;2755;50.728;7.108;2023-08-30T18:36:49;14.60;99.90
5466;DHT22;2755;50.728;7.108;2023-08-30T18:39:15;14.40;99.90
5466;DHT22;2755;50.728;7.108;2023-08-30T18:41:42;14.50;99.90
5466;DHT22;2755;50.728;7.108;2023-08-30T18:46:34;13.90;99.90
5466;DHT22;2755;50.728;7.108;2023-08-30T18:49:00;14.40;99.90
5466;DHT22;2755;50.728;7.108;2023-08-30T18:51:25;14.20;99.90
5466;DHT22;2755;50.728;7.108;2023-08-30T18:53:51;14.40;99.90
5466;DHT22;2755;50.728;7.108;2023-08-30T18:56:17;13.80;99.90
5466;DHT22;2755;50.728;7.108;2023-08-30T18:58:43;13.80;99.90
5466;DHT22;2755;50.728;7.108;2023-08-30T19:01:11;14.20;99.90
5466;DHT22;2755;50.728;7.108;2023-08-30T19:03:39;14.10;99.90
5466;DHT22;2755;50.728;7.108;2023-08-30T19:06:05;14.00;99.90
5466;DHT22;2755;50.728;7.108;2023-08-30T19:08:35;13.70;99.90
5466;DHT22;2755;50.728;7.108;2023-08-30T19:11:01;13.90;99.90
5466;DHT22;2755;50.728;7.108;2023-08-30T19:13:27;14.00;99.90
5466;DHT22;2755;50.728;7.108;2023-08-30T19:18:20;13.80;99.90
5466;DHT22;2755;50.728;7.108;2023-08-30T19:20:46;13.80;99.90
5466;DHT22;2755;50.728;7.108;2023-08-30T19:23:11;13.30;99.90
5466;DHT22;2755;50.728;7.108;2023-08-30T19:25:37;13.40;99.90
5466;DHT22;2755;50.728;7.108;2023-08-30T19:28:03;13.40;99.90
5466;DHT22;2755;50.728;7.108;2023-08-30T19:30:29;13.70;99.90